Swords, Ireland
Current Conditions -  °F | °C
As of 1:00 AM on Saturday 25 Oct 2014 (Local Time) from EIDW Reporting Station
Few Clouds Few Clouds  
Wind Chill: 42°   Ceiling: Unl
Heat Index: 48°   Visibility: 6mi
Dew Point: 45°   Wind: 17mph
Humidity: 87%   Direction: 240°WSW
Pressure: 29.85"   Gusts: NA
Location:  53.45°N, 6.22°W
Report Text: EIDW 250100Z 24015KT 9999 FEW018 09/07 Q1011 NOSIG
Loading
Personal Weather Stations






























Interactive Weather Map New forecast layout! Learn more

10-Day Weather Forecast

Advertisements
Track Severe Weather on mobile